sensor_id;sensor_type;location;lat;lon;timestamp;P1;durP1;ratioP1;P2;durP2;ratioP2
39654;SDS011;25336;59.944;11.010;2023-05-16T00:00:13;3.45;;;3.05;;
39654;SDS011;25336;59.944;11.010;2023-05-16T00:02:39;7.45;;;4.25;;
39654;SDS011;25336;59.944;11.010;2023-05-16T00:05:06;4.22;;;3.83;;
39654;SDS011;25336;59.944;11.010;2023-05-16T00:07:34;4.63;;;4.15;;
39654;SDS011;25336;59.944;11.010;2023-05-16T00:10:00;4.10;;;3.70;;
39654;SDS011;25336;59.944;11.010;2023-05-16T00:12:27;4.47;;;4.07;;
39654;SDS011;25336;59.944;11.010;2023-05-16T00:14:53;3.47;;;3.28;;
39654;SDS011;25336;59.944;11.010;2023-05-16T00:17:19;3.85;;;3.55;;
39654;SDS011;25336;59.944;11.010;2023-05-16T00:19:46;3.83;;;3.53;;
39654;SDS011;25336;59.944;11.010;2023-05-16T00:22:13;4.00;;;3.70;;
39654;SDS011;25336;59.944;11.010;2023-05-16T00:24:40;4.50;;;4.10;;
39654;SDS011;25336;59.944;11.010;2023-05-16T00:27:06;4.20;;;3.90;;
39654;SDS011;25336;59.944;11.010;2023-05-16T00:29:32;4.65;;;3.47;;
39654;SDS011;25336;59.944;11.010;2023-05-16T00:31:58;4.55;;;3.92;;
39654;SDS011;25336;59.944;11.010;2023-05-16T00:34:24;3.97;;;3.67;;
39654;SDS011;25336;59.944;11.010;2023-05-16T00:36:50;4.57;;;4.18;;
39654;SDS011;25336;59.944;11.010;2023-05-16T00:39:16;4.20;;;3.70;;
39654;SDS011;25336;59.944;11.010;2023-05-16T00:41:42;5.75;;;3.90;;
39654;SDS011;25336;59.944;11.010;2023-05-16T00:44:08;4.50;;;4.10;;
39654;SDS011;25336;59.944;11.010;2023-05-16T00:46:34;4.30;;;3.90;;
39654;SDS011;25336;59.944;11.010;2023-05-16T00:49:00;4.57;;;4.18;;
39654;SDS011;25336;59.944;11.010;2023-05-16T00:51:25;4.13;;;3.72;;
39654;SDS011;25336;59.944;11.010;2023-05-16T00:53:51;4.25;;;3.90;;
39654;SDS011;25336;59.944;11.010;2023-05-16T00:56:18;4.40;;;4.00;;
39654;SDS011;25336;59.944;11.010;2023-05-16T00:58:46;4.70;;;4.32;;
39654;SDS011;25336;59.944;11.010;2023-05-16T01:01:11;4.22;;;3.92;;
39654;SDS011;25336;59.944;11.010;2023-05-16T01:03:38;4.38;;;4.07;;
39654;SDS011;25336;59.944;11.010;2023-05-16T01:06:04;4.55;;;4.22;;
39654;SDS011;25336;59.944;11.010;2023-05-16T01:08:30;4.97;;;4.00;;
39654;SDS011;25336;59.944;11.010;2023-05-16T01:17:04;5.15;;;4.72;;
39654;SDS011;25336;59.944;11.010;2023-05-16T01:27:34;6.43;;;4.50;;
39654;SDS011;25336;59.944;11.010;2023-05-16T01:30:08;7.32;;;4.70;;
39654;SDS011;25336;59.944;11.010;2023-05-16T01:32:37;5.28;;;4.78;;
39654;SDS011;25336;59.944;11.010;2023-05-16T01:35:03;4.95;;;4.55;;
39654;SDS011;25336;59.944;11.010;2023-05-16T01:37:33;5.32;;;4.82;;
39654;SDS011;25336;59.944;11.010;2023-05-16T01:40:11;5.55;;;4.72;;
39654;SDS011;25336;59.944;11.010;2023-05-16T01:42:49;5.60;;;5.05;;
39654;SDS011;25336;59.944;11.010;2023-05-16T01:45:19;5.32;;;4.93;;
39654;SDS011;25336;59.944;11.010;2023-05-16T01:50:33;4.70;;;4.30;;
39654;SDS011;25336;59.944;11.010;2023-05-16T01:53:07;5.90;;;5.15;;
39654;SDS011;25336;59.944;11.010;2023-05-16T01:55:42;5.40;;;4.88;;
39654;SDS011;25336;59.944;11.010;2023-05-16T01:58:16;5.07;;;4.57;;
39654;SDS011;25336;59.944;11.010;2023-05-16T02:00:46;5.63;;;5.13;;
39654;SDS011;25336;59.944;11.010;2023-05-16T02:03:12;7.15;;;5.47;;
39654;SDS011;25336;59.944;11.010;2023-05-16T02:05:38;5.68;;;5.10;;
39654;SDS011;25336;59.944;11.010;2023-05-16T02:08:04;5.22;;;4.82;;
39654;SDS011;25336;59.944;11.010;2023-05-16T02:10:29;5.00;;;4.60;;
39654;SDS011;25336;59.944;11.010;2023-05-16T02:12:55;6.38;;;5.85;;
39654;SDS011;25336;59.944;11.010;2023-05-16T02:15:21;5.80;;;5.30;;
39654;SDS011;25336;59.944;11.010;2023-05-16T02:17:47;6.22;;;5.38;;
39654;SDS011;25336;59.944;11.010;2023-05-16T02:20:13;5.28;;;4.88;;
39654;SDS011;25336;59.944;11.010;2023-05-16T02:22:39;5.65;;;5.10;;
39654;SDS011;25336;59.944;11.010;2023-05-16T02:25:07;8.02;;;5.47;;
39654;SDS011;25336;59.944;11.010;2023-05-16T02:27:32;5.68;;;5.10;;
39654;SDS011;25336;59.944;11.010;2023-05-16T02:29:58;5.82;;;5.32;;
39654;SDS011;25336;59.944;11.010;2023-05-16T02:32:24;6.95;;;5.50;;
39654;SDS011;25336;59.944;11.010;2023-05-16T02:34:50;5.40;;;5.00;;
39654;SDS011;25336;59.944;11.010;2023-05-16T02:37:15;5.70;;;5.10;;
39654;SDS011;25336;59.944;11.010;2023-05-16T02:39:41;6.82;;;4.80;;
39654;SDS011;25336;59.944;11.010;2023-05-16T02:42:07;7.03;;;4.95;;
39654;SDS011;25336;59.944;11.010;2023-05-16T02:44:33;5.47;;;4.97;;
39654;SDS011;25336;59.944;11.010;2023-05-16T02:46:58;5.20;;;4.80;;
39654;SDS011;25336;59.944;11.010;2023-05-16T02:49:24;5.07;;;4.68;;
39654;SDS011;25336;59.944;11.010;2023-05-16T02:51:50;6.03;;;5.53;;
39654;SDS011;25336;59.944;11.010;2023-05-16T02:54:16;6.18;;;5.57;;
39654;SDS011;25336;59.944;11.010;2023-05-16T02:56:42;6.05;;;5.50;;
39654;SDS011;25336;59.944;11.010;2023-05-16T02:59:08;5.55;;;4.68;;
39654;SDS011;25336;59.944;11.010;2023-05-16T03:01:35;6.07;;;5.35;;
39654;SDS011;25336;59.944;11.010;2023-05-16T03:04:00;5.00;;;4.60;;
39654;SDS011;25336;59.944;11.010;2023-05-16T03:06:26;4.82;;;4.43;;
39654;SDS011;25336;59.944;11.010;2023-05-16T03:08:51;4.95;;;4.55;;
39654;SDS011;25336;59.944;11.010;2023-05-16T03:11:17;5.50;;;5.00;;
39654;SDS011;25336;59.944;11.010;2023-05-16T03:13:47;5.10;;;4.70;;
39654;SDS011;25336;59.944;11.010;2023-05-16T03:16:13;5.20;;;4.75;;
39654;SDS011;25336;59.944;11.010;2023-05-16T03:18:39;4.65;;;4.25;;
39654;SDS011;25336;59.944;11.010;2023-05-16T03:21:05;4.28;;;3.97;;
39654;SDS011;25336;59.944;11.010;2023-05-16T03:23:30;4.38;;;4.07;;
39654;SDS011;25336;59.944;11.010;2023-05-16T03:25:56;4.65;;;4.25;;
39654;SDS011;25336;59.944;11.010;2023-05-16T03:28:22;5.32;;;4.72;;
39654;SDS011;25336;59.944;11.010;2023-05-16T03:30:47;5.22;;;4.72;;
39654;SDS011;25336;59.944;11.010;2023-05-16T03:33:13;5.60;;;5.10;;
39654;SDS011;25336;59.944;11.010;2023-05-16T03:35:38;5.10;;;4.57;;
39654;SDS011;25336;59.944;11.010;2023-05-16T03:38:04;7.47;;;4.93;;
39654;SDS011;25336;59.944;11.010;2023-05-16T03:40:30;5.95;;;4.70;;
39654;SDS011;25336;59.944;11.010;2023-05-16T03:42:56;8.05;;;5.25;;
39654;SDS011;25336;59.944;11.010;2023-05-16T03:45:22;6.60;;;5.18;;
39654;SDS011;25336;59.944;11.010;2023-05-16T03:47:48;4.95;;;4.55;;
39654;SDS011;25336;59.944;11.010;2023-05-16T03:50:14;5.60;;;5.10;;
39654;SDS011;25336;59.944;11.010;2023-05-16T03:52:40;5.15;;;4.72;;
39654;SDS011;25336;59.944;11.010;2023-05-16T03:55:06;5.75;;;4.65;;
39654;SDS011;25336;59.944;11.010;2023-05-16T03:57:33;5.50;;;5.00;;
39654;SDS011;25336;59.944;11.010;2023-05-16T04:00:00;6.05;;;5.45;;
39654;SDS011;25336;59.944;11.010;2023-05-16T04:02:26;5.40;;;5.00;;
39654;SDS011;25336;59.944;11.010;2023-05-16T04:04:51;5.57;;;5.07;;
39654;SDS011;25336;59.944;11.010;2023-05-16T04:07:17;5.13;;;4.72;;
39654;SDS011;25336;59.944;11.010;2023-05-16T04:09:42;5.00;;;4.57;;
39654;SDS011;25336;59.944;11.010;2023-05-16T04:12:08;7.90;;;5.68;;
39654;SDS011;25336;59.944;11.010;2023-05-16T04:14:34;5.05;;;4.65;;
39654;SDS011;25336;59.944;11.010;2023-05-16T04:17:00;5.65;;;5.05;;
39654;SDS011;25336;59.944;11.010;2023-05-16T04:19:25;5.00;;;4.57;;
39654;SDS011;25336;59.944;11.010;2023-05-16T04:21:51;5.82;;;5.22;;
39654;SDS011;25336;59.944;11.010;2023-05-16T04:24:16;5.82;;;5.20;;
39654;SDS011;25336;59.944;11.010;2023-05-16T04:26:42;5.30;;;4.90;;
39654;SDS011;25336;59.944;11.010;2023-05-16T04:29:08;5.18;;;4.40;;
39654;SDS011;25336;59.944;11.010;2023-05-16T04:31:35;5.45;;;4.95;;
39654;SDS011;25336;59.944;11.010;2023-05-16T04:34:01;4.90;;;4.50;;
39654;SDS011;25336;59.944;11.010;2023-05-16T04:36:27;4.55;;;4.15;;
39654;SDS011;25336;59.944;11.010;2023-05-16T04:38:54;4.72;;;4.32;;
39654;SDS011;25336;59.944;11.010;2023-05-16T04:41:20;5.07;;;4.68;;
39654;SDS011;25336;59.944;11.010;2023-05-16T04:43:46;4.70;;;4.35;;
39654;SDS011;25336;59.944;11.010;2023-05-16T04:46:12;5.05;;;4.65;;
39654;SDS011;25336;59.944;11.010;2023-05-16T04:48:39;5.50;;;4.90;;
39654;SDS011;25336;59.944;11.010;2023-05-16T04:51:05;4.85;;;4.40;;
39654;SDS011;25336;59.944;11.010;2023-05-16T04:53:31;5.07;;;4.65;;
39654;SDS011;25336;59.944;11.010;2023-05-16T04:55:57;5.60;;;5.10;;
39654;SDS011;25336;59.944;11.010;2023-05-16T04:58:22;6.60;;;5.50;;
39654;SDS011;25336;59.944;11.010;2023-05-16T05:00:49;5.15;;;4.70;;
39654;SDS011;25336;59.944;11.010;2023-05-16T05:03:15;6.97;;;5.28;;
39654;SDS011;25336;59.944;11.010;2023-05-16T05:05:42;4.68;;;4.28;;
39654;SDS011;25336;59.944;11.010;2023-05-16T05:08:07;6.63;;;5.28;;
39654;SDS011;25336;59.944;11.010;2023-05-16T05:10:34;5.22;;;4.65;;
39654;SDS011;25336;59.944;11.010;2023-05-16T05:13:00;5.70;;;5.20;;
39654;SDS011;25336;59.944;11.010;2023-05-16T05:15:25;5.32;;;4.55;;
39654;SDS011;25336;59.944;11.010;2023-05-16T05:17:51;5.13;;;4.72;;
39654;SDS011;25336;59.944;11.010;2023-05-16T05:20:17;5.88;;;4.03;;
39654;SDS011;25336;59.944;11.010;2023-05-16T05:22:43;5.05;;;4.55;;
39654;SDS011;25336;59.944;11.010;2023-05-16T05:25:08;5.07;;;4.57;;
39654;SDS011;25336;59.944;11.010;2023-05-16T05:27:34;5.10;;;4.70;;
39654;SDS011;25336;59.944;11.010;2023-05-16T05:30:00;4.90;;;4.18;;
39654;SDS011;25336;59.944;11.010;2023-05-16T05:32:27;4.63;;;4.22;;
39654;SDS011;25336;59.944;11.010;2023-05-16T05:34:53;4.28;;;3.97;;
39654;SDS011;25336;59.944;11.010;2023-05-16T05:37:19;5.13;;;4.63;;
39654;SDS011;25336;59.944;11.010;2023-05-16T05:39:45;4.75;;;4.35;;
39654;SDS011;25336;59.944;11.010;2023-05-16T05:42:10;6.00;;;4.30;;
39654;SDS011;25336;59.944;11.010;2023-05-16T05:44:36;8.77;;;4.60;;
39654;SDS011;25336;59.944;11.010;2023-05-16T05:47:02;4.75;;;4.25;;
39654;SDS011;25336;59.944;11.010;2023-05-16T05:49:30;5.43;;;4.43;;
39654;SDS011;25336;59.944;11.010;2023-05-16T05:51:56;5.13;;;4.63;;
39654;SDS011;25336;59.944;11.010;2023-05-16T05:54:22;5.63;;;5.00;;
39654;SDS011;25336;59.944;11.010;2023-05-16T05:56:48;5.25;;;4.75;;
39654;SDS011;25336;59.944;11.010;2023-05-16T05:59:13;4.50;;;4.20;;
39654;SDS011;25336;59.944;11.010;2023-05-16T06:01:39;5.15;;;4.65;;
39654;SDS011;25336;59.944;11.010;2023-05-16T06:04:05;6.35;;;4.68;;
39654;SDS011;25336;59.944;11.010;2023-05-16T06:06:30;4.57;;;4.18;;
39654;SDS011;25336;59.944;11.010;2023-05-16T06:08:57;5.43;;;4.82;;
39654;SDS011;25336;59.944;11.010;2023-05-16T06:11:23;4.90;;;4.50;;
39654;SDS011;25336;59.944;11.010;2023-05-16T06:13:52;6.13;;;4.63;;
39654;SDS011;25336;59.944;11.010;2023-05-16T06:16:18;4.75;;;4.35;;
39654;SDS011;25336;59.944;11.010;2023-05-16T06:18:44;6.38;;;4.63;;
39654;SDS011;25336;59.944;11.010;2023-05-16T06:21:09;5.65;;;4.90;;
39654;SDS011;25336;59.944;11.010;2023-05-16T06:23:35;4.93;;;4.53;;
39654;SDS011;25336;59.944;11.010;2023-05-16T06:26:01;5.00;;;4.50;;
39654;SDS011;25336;59.944;11.010;2023-05-16T06:28:28;5.70;;;4.50;;
39654;SDS011;25336;59.944;11.010;2023-05-16T06:30:53;4.72;;;4.32;;
39654;SDS011;25336;59.944;11.010;2023-05-16T06:33:19;4.68;;;4.28;;
39654;SDS011;25336;59.944;11.010;2023-05-16T06:35:45;5.00;;;4.60;;
39654;SDS011;25336;59.944;11.010;2023-05-16T06:38:12;6.00;;;5.20;;
39654;SDS011;25336;59.944;11.010;2023-05-16T06:40:39;4.97;;;4.57;;
39654;SDS011;25336;59.944;11.010;2023-05-16T06:43:05;5.40;;;4.90;;
39654;SDS011;25336;59.944;11.010;2023-05-16T06:45:30;5.43;;;4.93;;
39654;SDS011;25336;59.944;11.010;2023-05-16T06:47:56;5.00;;;4.55;;
39654;SDS011;25336;59.944;11.010;2023-05-16T06:50:22;9.23;;;4.70;;
39654;SDS011;25336;59.944;11.010;2023-05-16T06:52:47;5.25;;;4.75;;
39654;SDS011;25336;59.944;11.010;2023-05-16T06:55:13;5.65;;;4.95;;
39654;SDS011;25336;59.944;11.010;2023-05-16T06:57:39;5.35;;;4.85;;
39654;SDS011;25336;59.944;11.010;2023-05-16T07:00:05;5.25;;;4.43;;
39654;SDS011;25336;59.944;11.010;2023-05-16T07:02:31;4.90;;;4.50;;
39654;SDS011;25336;59.944;11.010;2023-05-16T07:04:56;5.70;;;5.25;;
39654;SDS011;25336;59.944;11.010;2023-05-16T07:07:22;5.40;;;4.93;;
39654;SDS011;25336;59.944;11.010;2023-05-16T07:09:48;6.15;;;5.57;;
39654;SDS011;25336;59.944;11.010;2023-05-16T07:12:13;6.80;;;4.25;;
39654;SDS011;25336;59.944;11.010;2023-05-16T07:14:39;6.10;;;4.80;;
39654;SDS011;25336;59.944;11.010;2023-05-16T07:17:05;6.93;;;5.35;;
39654;SDS011;25336;59.944;11.010;2023-05-16T07:19:31;5.63;;;4.18;;
39654;SDS011;25336;59.944;11.010;2023-05-16T07:21:57;5.05;;;4.57;;
39654;SDS011;25336;59.944;11.010;2023-05-16T07:24:22;4.60;;;4.30;;
39654;SDS011;25336;59.944;11.010;2023-05-16T07:26:48;5.03;;;4.63;;
39654;SDS011;25336;59.944;11.010;2023-05-16T07:29:14;6.05;;;4.93;;
39654;SDS011;25336;59.944;11.010;2023-05-16T07:31:39;5.05;;;4.65;;
39654;SDS011;25336;59.944;11.010;2023-05-16T07:34:05;5.72;;;5.07;;
39654;SDS011;25336;59.944;11.010;2023-05-16T07:36:32;6.30;;;4.50;;
39654;SDS011;25336;59.944;11.010;2023-05-16T07:38:58;5.28;;;4.88;;
39654;SDS011;25336;59.944;11.010;2023-05-16T07:41:27;5.15;;;4.75;;
39654;SDS011;25336;59.944;11.010;2023-05-16T07:43:53;4.80;;;4.47;;
39654;SDS011;25336;59.944;11.010;2023-05-16T07:46:19;5.57;;;5.10;;
39654;SDS011;25336;59.944;11.010;2023-05-16T07:48:44;6.10;;;5.05;;
39654;SDS011;25336;59.944;11.010;2023-05-16T07:51:10;5.55;;;4.97;;
39654;SDS011;25336;59.944;11.010;2023-05-16T07:53:36;6.30;;;5.32;;
39654;SDS011;25336;59.944;11.010;2023-05-16T07:56:01;5.43;;;4.70;;
39654;SDS011;25336;59.944;11.010;2023-05-16T07:58:27;5.13;;;4.70;;
39654;SDS011;25336;59.944;11.010;2023-05-16T08:00:53;5.90;;;5.32;;
39654;SDS011;25336;59.944;11.010;2023-05-16T08:03:19;6.65;;;5.43;;
39654;SDS011;25336;59.944;11.010;2023-05-16T08:05:44;6.00;;;5.50;;
39654;SDS011;25336;59.944;11.010;2023-05-16T08:08:10;6.07;;;5.53;;
39654;SDS011;25336;59.944;11.010;2023-05-16T08:10:36;6.38;;;5.78;;
39654;SDS011;25336;59.944;11.010;2023-05-16T08:13:01;5.72;;;5.22;;
39654;SDS011;25336;59.944;11.010;2023-05-16T08:15:27;5.57;;;5.13;;
39654;SDS011;25336;59.944;11.010;2023-05-16T08:17:57;5.90;;;5.40;;
39654;SDS011;25336;59.944;11.010;2023-05-16T08:20:23;6.60;;;5.25;;
39654;SDS011;25336;59.944;11.010;2023-05-16T08:22:50;6.20;;;5.60;;
39654;SDS011;25336;59.944;11.010;2023-05-16T08:25:16;5.15;;;4.65;;
39654;SDS011;25336;59.944;11.010;2023-05-16T08:27:43;5.32;;;4.93;;
39654;SDS011;25336;59.944;11.010;2023-05-16T08:30:10;5.60;;;5.10;;
39654;SDS011;25336;59.944;11.010;2023-05-16T08:32:36;6.18;;;5.18;;
39654;SDS011;25336;59.944;11.010;2023-05-16T08:35:02;5.75;;;5.15;;
39654;SDS011;25336;59.944;11.010;2023-05-16T08:37:27;9.30;;;5.18;;
39654;SDS011;25336;59.944;11.010;2023-05-16T08:39:53;5.65;;;5.25;;
39654;SDS011;25336;59.944;11.010;2023-05-16T08:42:18;5.82;;;5.32;;
39654;SDS011;25336;59.944;11.010;2023-05-16T08:44:44;8.57;;;5.13;;
39654;SDS011;25336;59.944;11.010;2023-05-16T08:47:11;5.65;;;5.15;;
39654;SDS011;25336;59.944;11.010;2023-05-16T08:49:40;6.32;;;5.68;;
39654;SDS011;25336;59.944;11.010;2023-05-16T08:52:07;5.68;;;5.18;;
39654;SDS011;25336;59.944;11.010;2023-05-16T08:54:33;5.93;;;5.43;;
39654;SDS011;25336;59.944;11.010;2023-05-16T08:57:00;8.43;;;5.97;;
39654;SDS011;25336;59.944;11.010;2023-05-16T08:59:26;6.90;;;6.30;;
39654;SDS011;25336;59.944;11.010;2023-05-16T09:01:52;6.60;;;6.00;;
39654;SDS011;25336;59.944;11.010;2023-05-16T09:04:19;7.13;;;6.53;;
39654;SDS011;25336;59.944;11.010;2023-05-16T09:06:45;6.32;;;5.47;;
39654;SDS011;25336;59.944;11.010;2023-05-16T09:09:12;6.50;;;5.07;;
39654;SDS011;25336;59.944;11.010;2023-05-16T09:11:38;5.15;;;4.75;;
39654;SDS011;25336;59.944;11.010;2023-05-16T09:14:04;5.13;;;4.63;;
39654;SDS011;25336;59.944;11.010;2023-05-16T09:16:30;4.65;;;4.25;;
39654;SDS011;25336;59.944;11.010;2023-05-16T09:18:56;5.20;;;4.70;;
39654;SDS011;25336;59.944;11.010;2023-05-16T09:21:33;5.53;;;4.65;;
39654;SDS011;25336;59.944;11.010;2023-05-16T09:24:03;5.70;;;4.68;;
39654;SDS011;25336;59.944;11.010;2023-05-16T09:26:29;5.45;;;4.95;;
39654;SDS011;25336;59.944;11.010;2023-05-16T09:28:59;6.88;;;5.53;;
39654;SDS011;25336;59.944;11.010;2023-05-16T09:31:26;5.50;;;5.00;;
39654;SDS011;25336;59.944;11.010;2023-05-16T09:34:01;5.85;;;5.28;;
39654;SDS011;25336;59.944;11.010;2023-05-16T09:36:30;5.30;;;4.90;;
39654;SDS011;25336;59.944;11.010;2023-05-16T09:38:56;4.75;;;4.35;;
39654;SDS011;25336;59.944;11.010;2023-05-16T09:41:22;5.50;;;5.00;;
39654;SDS011;25336;59.944;11.010;2023-05-16T09:43:47;5.35;;;4.85;;
39654;SDS011;25336;59.944;11.010;2023-05-16T09:46:13;8.10;;;5.88;;
39654;SDS011;25336;59.944;11.010;2023-05-16T09:48:46;4.72;;;4.32;;
39654;SDS011;25336;59.944;11.010;2023-05-16T09:51:12;5.40;;;4.90;;
39654;SDS011;25336;59.944;11.010;2023-05-16T09:53:39;7.07;;;4.68;;
39654;SDS011;25336;59.944;11.010;2023-05-16T09:56:09;7.00;;;5.07;;
39654;SDS011;25336;59.944;11.010;2023-05-16T09:58:36;6.15;;;5.50;;
39654;SDS011;25336;59.944;11.010;2023-05-16T10:01:03;8.75;;;5.65;;
39654;SDS011;25336;59.944;11.010;2023-05-16T10:03:32;5.50;;;5.00;;
39654;SDS011;25336;59.944;11.010;2023-05-16T10:05:59;6.57;;;5.45;;
39654;SDS011;25336;59.944;11.010;2023-05-16T10:08:25;5.93;;;5.32;;
39654;SDS011;25336;59.944;11.010;2023-05-16T10:10:52;6.18;;;4.63;;
39654;SDS011;25336;59.944;11.010;2023-05-16T10:13:22;5.82;;;5.32;;
39654;SDS011;25336;59.944;11.010;2023-05-16T10:15:54;7.00;;;5.85;;
39654;SDS011;25336;59.944;11.010;2023-05-16T10:18:21;5.95;;;5.35;;
39654;SDS011;25336;59.944;11.010;2023-05-16T10:20:50;5.97;;;5.47;;
39654;SDS011;25336;59.944;11.010;2023-05-16T10:23:19;6.35;;;5.85;;
39654;SDS011;25336;59.944;11.010;2023-05-16T10:25:46;11.55;;;6.93;;
39654;SDS011;25336;59.944;11.010;2023-05-16T10:28:13;7.95;;;6.20;;
39654;SDS011;25336;59.944;11.010;2023-05-16T10:30:41;6.60;;;5.35;;
39654;SDS011;25336;59.944;11.010;2023-05-16T10:33:09;7.53;;;6.30;;
39654;SDS011;25336;59.944;11.010;2023-05-16T10:35:39;6.97;;;6.28;;
39654;SDS011;25336;59.944;11.010;2023-05-16T10:38:06;8.65;;;6.30;;
39654;SDS011;25336;59.944;11.010;2023-05-16T10:40:34;10.63;;;6.88;;
39654;SDS011;25336;59.944;11.010;2023-05-16T10:43:02;9.25;;;6.75;;
39654;SDS011;25336;59.944;11.010;2023-05-16T10:45:29;9.55;;;7.05;;
39654;SDS011;25336;59.944;11.010;2023-05-16T10:48:01;7.57;;;6.80;;
39654;SDS011;25336;59.944;11.010;2023-05-16T10:50:34;8.52;;;6.18;;
39654;SDS011;25336;59.944;11.010;2023-05-16T10:53:15;8.82;;;5.53;;
39654;SDS011;25336;59.944;11.010;2023-05-16T11:06:23;5.13;;;4.72;;
39654;SDS011;25336;59.944;11.010;2023-05-16T11:11:53;5.28;;;4.78;;
39654;SDS011;25336;59.944;11.010;2023-05-16T11:16:52;7.65;;;5.05;;
39654;SDS011;25336;59.944;11.010;2023-05-16T11:19:31;7.15;;;5.95;;
39654;SDS011;25336;59.944;11.010;2023-05-16T11:27:26;7.68;;;6.90;;
39654;SDS011;25336;59.944;11.010;2023-05-16T11:30:15;8.15;;;7.10;;
39654;SDS011;25336;59.944;11.010;2023-05-16T11:32:42;9.13;;;6.78;;
39654;SDS011;25336;59.944;11.010;2023-05-16T11:35:09;9.00;;;7.15;;
39654;SDS011;25336;59.944;11.010;2023-05-16T11:37:39;8.25;;;7.20;;
39654;SDS011;25336;59.944;11.010;2023-05-16T11:40:05;9.70;;;7.10;;
39654;SDS011;25336;59.944;11.010;2023-05-16T11:42:34;7.35;;;6.63;;
39654;SDS011;25336;59.944;11.010;2023-05-16T11:45:08;8.05;;;7.03;;
39654;SDS011;25336;59.944;11.010;2023-05-16T11:47:45;8.40;;;6.82;;
39654;SDS011;25336;59.944;11.010;2023-05-16T11:50:15;8.52;;;6.57;;
39654;SDS011;25336;59.944;11.010;2023-05-16T11:52:43;7.90;;;6.22;;
39654;SDS011;25336;59.944;11.010;2023-05-16T11:55:10;7.65;;;6.80;;
39654;SDS011;25336;59.944;11.010;2023-05-16T11:57:39;6.10;;;5.55;;
39654;SDS011;25336;59.944;11.010;2023-05-16T12:00:14;6.10;;;5.55;;
39654;SDS011;25336;59.944;11.010;2023-05-16T12:02:45;7.15;;;5.05;;
39654;SDS011;25336;59.944;11.010;2023-05-16T12:05:11;7.30;;;6.07;;
39654;SDS011;25336;59.944;11.010;2023-05-16T12:07:38;7.47;;;4.97;;
39654;SDS011;25336;59.944;11.010;2023-05-16T12:10:06;4.53;;;4.13;;
39654;SDS011;25336;59.944;11.010;2023-05-16T12:12:33;5.88;;;4.18;;
39654;SDS011;25336;59.944;11.010;2023-05-16T12:14:59;8.25;;;5.40;;
39654;SDS011;25336;59.944;11.010;2023-05-16T12:17:27;5.28;;;4.13;;
39654;SDS011;25336;59.944;11.010;2023-05-16T12:19:53;6.72;;;4.07;;
39654;SDS011;25336;59.944;11.010;2023-05-16T12:22:19;4.82;;;4.40;;
39654;SDS011;25336;59.944;11.010;2023-05-16T12:24:45;4.97;;;4.47;;
39654;SDS011;25336;59.944;11.010;2023-05-16T12:27:11;5.80;;;5.18;;
39654;SDS011;25336;59.944;11.010;2023-05-16T12:29:36;6.03;;;5.38;;
39654;SDS011;25336;59.944;11.010;2023-05-16T12:32:03;6.78;;;5.07;;
39654;SDS011;25336;59.944;11.010;2023-05-16T12:34:31;5.03;;;4.03;;
39654;SDS011;25336;59.944;11.010;2023-05-16T12:36:57;4.22;;;3.83;;
39654;SDS011;25336;59.944;11.010;2023-05-16T12:39:23;5.30;;;3.97;;
39654;SDS011;25336;59.944;11.010;2023-05-16T12:41:49;4.75;;;4.10;;
39654;SDS011;25336;59.944;11.010;2023-05-16T12:44:15;5.00;;;4.60;;
39654;SDS011;25336;59.944;11.010;2023-05-16T12:46:43;6.32;;;4.32;;
39654;SDS011;25336;59.944;11.010;2023-05-16T12:49:22;5.75;;;4.22;;
39654;SDS011;25336;59.944;11.010;2023-05-16T12:51:51;4.85;;;4.43;;
39654;SDS011;25336;59.944;11.010;2023-05-16T12:54:22;5.90;;;5.40;;
39654;SDS011;25336;59.944;11.010;2023-05-16T12:56:48;8.00;;;6.43;;
39654;SDS011;25336;59.944;11.010;2023-05-16T12:59:14;5.78;;;4.93;;
39654;SDS011;25336;59.944;11.010;2023-05-16T13:01:40;4.90;;;4.50;;
39654;SDS011;25336;59.944;11.010;2023-05-16T13:04:06;5.80;;;5.18;;
39654;SDS011;25336;59.944;11.010;2023-05-16T13:06:32;5.35;;;4.85;;
39654;SDS011;25336;59.944;11.010;2023-05-16T13:08:58;5.45;;;5.05;;
39654;SDS011;25336;59.944;11.010;2023-05-16T13:11:24;6.78;;;4.47;;
39654;SDS011;25336;59.944;11.010;2023-05-16T13:13:50;5.18;;;4.78;;
39654;SDS011;25336;59.944;11.010;2023-05-16T13:16:16;5.97;;;5.47;;
39654;SDS011;25336;59.944;11.010;2023-05-16T13:18:42;5.65;;;5.13;;
39654;SDS011;25336;59.944;11.010;2023-05-16T13:21:07;5.70;;;4.85;;
39654;SDS011;25336;59.944;11.010;2023-05-16T13:23:33;5.10;;;4.65;;
39654;SDS011;25336;59.944;11.010;2023-05-16T13:25:58;5.63;;;5.10;;
39654;SDS011;25336;59.944;11.010;2023-05-16T13:28:24;6.22;;;4.95;;
39654;SDS011;25336;59.944;11.010;2023-05-16T13:30:50;6.38;;;5.13;;
39654;SDS011;25336;59.944;11.010;2023-05-16T13:33:16;5.93;;;5.32;;
39654;SDS011;25336;59.944;11.010;2023-05-16T13:35:42;7.93;;;4.50;;
39654;SDS011;25336;59.944;11.010;2023-05-16T13:38:08;5.32;;;4.75;;
39654;SDS011;25336;59.944;11.010;2023-05-16T13:40:34;9.20;;;5.88;;
39654;SDS011;25336;59.944;11.010;2023-05-16T13:43:00;7.32;;;4.70;;
39654;SDS011;25336;59.944;11.010;2023-05-16T13:45:26;4.70;;;4.30;;
39654;SDS011;25336;59.944;11.010;2023-05-16T13:47:52;4.72;;;4.32;;
39654;SDS011;25336;59.944;11.010;2023-05-16T13:50:17;6.45;;;4.57;;
39654;SDS011;25336;59.944;11.010;2023-05-16T13:52:44;5.43;;;4.50;;
39654;SDS011;25336;59.944;11.010;2023-05-16T13:55:11;4.40;;;4.00;;
39654;SDS011;25336;59.944;11.010;2023-05-16T13:57:37;5.10;;;4.45;;
39654;SDS011;25336;59.944;11.010;2023-05-16T14:00:03;5.15;;;4.65;;
39654;SDS011;25336;59.944;11.010;2023-05-16T14:02:36;5.25;;;4.75;;
39654;SDS011;25336;59.944;11.010;2023-05-16T14:05:08;6.43;;;4.93;;
39654;SDS011;25336;59.944;11.010;2023-05-16T14:07:34;4.90;;;4.40;;
39654;SDS011;25336;59.944;11.010;2023-05-16T14:10:00;4.80;;;4.30;;
39654;SDS011;25336;59.944;11.010;2023-05-16T14:12:25;4.20;;;3.78;;
39654;SDS011;25336;59.944;11.010;2023-05-16T14:14:51;4.70;;;4.22;;
39654;SDS011;25336;59.944;11.010;2023-05-16T14:17:18;4.07;;;3.78;;
39654;SDS011;25336;59.944;11.010;2023-05-16T14:19:44;3.95;;;3.65;;
39654;SDS011;25336;59.944;11.010;2023-05-16T14:22:10;3.85;;;3.47;;
39654;SDS011;25336;59.944;11.010;2023-05-16T14:24:36;4.65;;;3.40;;
39654;SDS011;25336;59.944;11.010;2023-05-16T14:27:01;4.40;;;3.40;;
39654;SDS011;25336;59.944;11.010;2023-05-16T14:29:27;3.85;;;3.45;;
39654;SDS011;25336;59.944;11.010;2023-05-16T14:31:53;3.58;;;3.38;;
39654;SDS011;25336;59.944;11.010;2023-05-16T14:34:18;3.53;;;3.22;;
39654;SDS011;25336;59.944;11.010;2023-05-16T14:36:44;6.75;;;3.45;;
39654;SDS011;25336;59.944;11.010;2023-05-16T14:39:09;7.15;;;3.17;;
39654;SDS011;25336;59.944;11.010;2023-05-16T14:41:36;3.25;;;2.95;;
39654;SDS011;25336;59.944;11.010;2023-05-16T14:44:01;5.10;;;3.03;;
39654;SDS011;25336;59.944;11.010;2023-05-16T14:46:27;3.72;;;3.05;;
39654;SDS011;25336;59.944;11.010;2023-05-16T14:48:53;3.65;;;2.92;;
39654;SDS011;25336;59.944;11.010;2023-05-16T14:51:18;3.50;;;2.90;;
39654;SDS011;25336;59.944;11.010;2023-05-16T14:53:44;5.47;;;2.70;;
39654;SDS011;25336;59.944;11.010;2023-05-16T14:56:10;3.38;;;2.80;;
39654;SDS011;25336;59.944;11.010;2023-05-16T14:58:35;3.60;;;3.25;;
39654;SDS011;25336;59.944;11.010;2023-05-16T15:01:01;5.82;;;3.00;;
39654;SDS011;25336;59.944;11.010;2023-05-16T15:03:26;4.10;;;2.47;;
39654;SDS011;25336;59.944;11.010;2023-05-16T15:05:52;2.83;;;2.63;;
39654;SDS011;25336;59.944;11.010;2023-05-16T15:08:18;3.58;;;3.20;;